Time;durP1;ratioP1;P1;durP2;ratioP2;P2;SDS_P1;SDS_P2;PMS_P1;PMS_P2;Temp;Humidity;BMP_temperature;BMP_pressure;BME280_temperature;BME280_humidity;BME280_pressure;Samples;Min_cycle;Max_cycle;Signal;HPM_P1;HPM_P2
2020/12/29 00:00:55;;;;;;;33.67;19.65;;;5.60;99.90;;;;;;5068148;28;20259;-77
2020/12/29 00:03:22;;;;;;;34.10;20.02;;;5.60;99.90;;;;;;5068805;27;20277;-77
2020/12/29 00:05:49;;;;;;;33.75;19.35;;;5.60;99.90;;;;;;5067620;27;20207;-76
2020/12/29 00:08:16;;;;;;;35.40;19.30;;;5.70;99.90;;;;;;5081081;27;20194;-76
2020/12/29 00:10:43;;;;;;;36.70;19.48;;;5.70;99.90;;;;;;5077976;28;20262;-76
2020/12/29 00:13:10;;;;;;;34.67;19.42;;;5.70;99.90;;;;;;5068737;28;20210;-76
2020/12/29 00:15:39;;;;;;;32.30;19.88;;;5.70;99.90;;;;;;5081629;28;20235;-76
2020/12/29 00:18:05;;;;;;;32.67;18.70;;;5.70;99.90;;;;;;5075040;28;20255;-76
2020/12/29 00:20:33;;;;;;;42.88;19.65;;;5.70;99.90;;;;;;5084875;28;20585;-76
2020/12/29 00:22:59;;;;;;;41.50;18.58;;;5.70;99.90;;;;;;5086035;28;20205;-76
2020/12/29 00:25:28;;;;;;;29.65;17.90;;;5.70;99.90;;;;;;5069260;28;20224;-75
2020/12/29 00:27:54;;;;;;;48.08;17.50;;;5.70;99.90;;;;;;5086872;28;20715;-76
2020/12/29 00:30:21;;;;;;;34.45;15.98;;;5.70;99.90;;;;;;5068356;28;20198;-76
2020/12/29 00:32:47;;;;;;;39.88;16.10;;;5.70;99.90;;;;;;5066673;28;20338;-76
2020/12/29 00:35:13;;;;;;;33.20;16.00;;;5.70;99.90;;;;;;5076498;28;20537;-76
2020/12/29 00:37:44;;;;;;;29.80;14.95;;;5.70;99.90;;;;;;5067343;28;20242;-76
2020/12/29 00:40:11;;;;;;;32.95;15.02;;;5.60;99.90;;;;;;5081774;28;20202;-76
2020/12/29 00:42:38;;;;;;;28.23;16.25;;;5.60;99.90;;;;;;5069874;28;20554;-76
2020/12/29 00:45:04;;;;;;;27.80;15.30;;;5.60;99.90;;;;;;5066449;28;20710;-76
2020/12/29 00:47:30;;;;;;;30.00;16.38;;;5.60;99.90;;;;;;5098680;28;20219;-76
2020/12/29 00:49:57;;;;;;;35.05;17.63;;;5.60;99.90;;;;;;5066370;28;20206;-76
2020/12/29 00:52:23;;;;;;;35.83;17.63;;;5.60;99.90;;;;;;5073008;27;20207;-76
2020/12/29 00:54:59;;;;;;;35.75;18.88;;;5.50;99.90;;;;;;5077195;28;20194;-76
2020/12/29 00:57:45;;;;;;;33.20;19.48;;;5.50;99.90;;;;;;5068292;28;20198;-76
2020/12/29 01:00:11;;;;;;;34.53;20.25;;;5.50;99.90;;;;;;5067265;28;20190;-76
2020/12/29 01:02:56;;;;;;;34.65;18.83;;;5.50;99.90;;;;;;5086132;28;20269;-76
2020/12/29 01:05:23;;;;;;;34.67;18.13;;;5.50;99.90;;;;;;5067325;28;20213;-76
2020/12/29 01:07:50;;;;;;;34.53;17.92;;;5.50;99.90;;;;;;5067537;28;20246;-76
2020/12/29 01:10:17;;;;;;;45.72;17.15;;;5.50;99.90;;;;;;5069485;28;20214;-76
2020/12/29 01:13:04;;;;;;;41.88;18.20;;;5.50;99.90;;;;;;5077285;28;20670;-77
2020/12/29 01:15:33;;;;;;;39.10;17.85;;;5.50;99.90;;;;;;5069156;28;20604;-76
2020/12/29 01:18:05;;;;;;;39.67;19.20;;;5.50;99.90;;;;;;5069430;28;20194;-75
2020/12/29 01:20:35;;;;;;;49.67;20.73;;;5.40;99.90;;;;;;5082950;27;20191;-75
2020/12/29 01:23:01;;;;;;;44.38;21.30;;;5.50;99.90;;;;;;5087361;28;20190;-75
2020/12/29 01:25:29;;;;;;;40.33;20.80;;;5.50;99.90;;;;;;5067526;28;20210;-77
2020/12/29 01:27:58;;;;;;;47.75;20.85;;;5.40;99.90;;;;;;5075767;28;20226;-74
2020/12/29 01:30:25;;;;;;;38.60;20.80;;;5.50;99.90;;;;;;5081597;28;20201;-75
2020/12/29 01:32:51;;;;;;;38.90;20.70;;;5.50;99.90;;;;;;5067095;28;20201;-76
2020/12/29 01:35:17;;;;;;;36.13;21.17;;;5.50;99.90;;;;;;5073815;28;20738;-75
2020/12/29 01:37:45;;;;;;;38.90;21.00;;;5.50;99.90;;;;;;5065577;28;20218;-77
2020/12/29 01:40:14;;;;;;;42.15;21.20;;;5.40;99.90;;;;;;5073694;28;20610;-77
2020/12/29 01:42:42;;;;;;;49.13;22.33;;;5.50;99.90;;;;;;5065368;28;20691;-75
2020/12/29 01:45:10;;;;;;;36.30;22.02;;;5.50;99.90;;;;;;5072266;28;20259;-77
2020/12/29 01:47:39;;;;;;;48.25;23.63;;;5.50;99.90;;;;;;5067978;28;20259;-76
2020/12/29 01:50:10;;;;;;;44.00;22.42;;;5.50;99.90;;;;;;5075069;28;20205;-77
2020/12/29 01:52:38;;;;;;;54.95;23.42;;;5.50;99.90;;;;;;5076731;28;20342;-77
2020/12/29 01:55:06;;;;;;;56.35;24.42;;;5.50;99.90;;;;;;5072902;28;20208;-77
2020/12/29 01:57:33;;;;;;;50.00;24.13;;;5.50;99.90;;;;;;5070430;28;20227;-76
2020/12/29 02:00:01;;;;;;;49.63;22.98;;;5.50;99.90;;;;;;5081680;28;20246;-76
2020/12/29 02:02:30;;;;;;;38.60;22.45;;;5.50;99.90;;;;;;5074271;28;20643;-76
2020/12/29 02:04:57;;;;;;;37.10;22.17;;;5.50;99.90;;;;;;5083063;28;20195;-77
2020/12/29 02:07:23;;;;;;;41.78;22.98;;;5.50;99.90;;;;;;5074627;28;20627;-77
2020/12/29 02:09:50;;;;;;;43.28;23.55;;;5.60;99.90;;;;;;5077059;28;20198;-76
2020/12/29 02:12:26;;;;;;;42.20;23.25;;;5.60;99.90;;;;;;5070457;28;20203;-76
2020/12/29 02:14:54;;;;;;;49.30;23.52;;;5.50;99.90;;;;;;5071418;28;22797;-76
2020/12/29 02:17:21;;;;;;;47.65;23.00;;;5.50;99.90;;;;;;5070634;28;20753;-77
2020/12/29 02:19:48;;;;;;;47.58;23.90;;;5.60;99.90;;;;;;5070973;28;20207;-77
2020/12/29 02:22:20;;;;;;;44.58;23.05;;;5.50;99.90;;;;;;5074672;28;20209;-76
2020/12/29 02:24:52;;;;;;;41.38;21.95;;;5.50;99.90;;;;;;5074277;28;20206;-76
2020/12/29 02:27:26;;;;;;;38.60;21.58;;;5.50;99.90;;;;;;5077879;28;20600;-76
2020/12/29 02:29:52;;;;;;;36.60;22.52;;;5.50;99.90;;;;;;5070407;28;20202;-76
2020/12/29 02:32:20;;;;;;;44.92;22.17;;;5.50;99.90;;;;;;5078383;28;20602;-76
2020/12/29 02:34:47;;;;;;;41.90;21.25;;;5.50;99.90;;;;;;5085863;28;20246;-76
2020/12/29 02:37:14;;;;;;;40.08;21.33;;;5.50;99.90;;;;;;5080228;28;20230;-77
2020/12/29 02:39:42;;;;;;;34.10;20.60;;;5.50;99.90;;;;;;5067877;28;20247;-75
2020/12/29 02:42:10;;;;;;;37.65;19.42;;;5.50;99.90;;;;;;5079058;28;20254;-76
2020/12/29 02:44:37;;;;;;;32.92;20.13;;;5.50;99.90;;;;;;5082878;28;20216;-76
2020/12/29 02:47:05;;;;;;;43.13;20.17;;;5.50;99.90;;;;;;5070513;28;20215;-76
2020/12/29 02:49:33;;;;;;;43.95;19.95;;;5.50;99.90;;;;;;5086872;28;20572;-77
2020/12/29 02:52:00;;;;;;;37.78;20.83;;;5.50;99.90;;;;;;5081202;28;20205;-76
2020/12/29 02:54:27;;;;;;;34.05;20.95;;;5.50;99.90;;;;;;5073545;28;20233;-76
2020/12/29 02:56:54;;;;;;;37.72;20.45;;;5.50;99.90;;;;;;5079674;28;20800;-76
2020/12/29 02:59:24;;;;;;;37.92;20.52;;;5.50;99.90;;;;;;5078969;27;20218;-76
2020/12/29 03:01:50;;;;;;;35.30;20.27;;;5.50;99.90;;;;;;5080224;28;20205;-76
2020/12/29 03:04:17;;;;;;;45.63;22.75;;;5.50;99.90;;;;;;5067818;28;20555;-76
2020/12/29 03:06:44;;;;;;;36.95;22.08;;;5.40;99.90;;;;;;5069570;28;20247;-76
2020/12/29 03:09:10;;;;;;;41.20;23.02;;;5.40;99.90;;;;;;5074811;28;20209;-77
2020/12/29 03:11:42;;;;;;;37.42;20.38;;;5.40;99.90;;;;;;5078987;28;20688;-76
2020/12/29 03:14:13;;;;;;;39.95;21.80;;;5.40;99.90;;;;;;5070736;28;20213;-76
2020/12/29 03:16:39;;;;;;;51.65;22.55;;;5.40;99.90;;;;;;5068920;28;20205;-76
2020/12/29 03:19:06;;;;;;;40.40;22.88;;;5.40;99.90;;;;;;5069747;27;20546;-76
2020/12/29 03:21:32;;;;;;;50.10;23.52;;;5.40;99.90;;;;;;5071581;28;20209;-76
2020/12/29 03:23:59;;;;;;;38.70;22.50;;;5.40;99.90;;;;;;5084189;28;20202;-77
2020/12/29 03:26:25;;;;;;;51.58;22.65;;;5.40;99.90;;;;;;5074450;28;20591;-76
2020/12/29 03:28:53;;;;;;;53.63;22.70;;;5.40;99.90;;;;;;5072964;28;20193;-76
2020/12/29 03:31:21;;;;;;;50.70;22.40;;;5.40;99.90;;;;;;5079166;28;20209;-75
2020/12/29 03:33:47;;;;;;;52.50;22.85;;;5.40;99.90;;;;;;5069085;28;20199;-77
2020/12/29 03:36:14;;;;;;;54.78;22.88;;;5.40;99.90;;;;;;5072303;28;20624;-76
2020/12/29 03:38:40;;;;;;;50.00;22.33;;;5.40;99.90;;;;;;5084073;28;20213;-76
2020/12/29 03:41:07;;;;;;;56.30;21.45;;;5.40;99.90;;;;;;5072794;28;20226;-77
2020/12/29 03:43:36;;;;;;;41.78;22.10;;;5.40;99.90;;;;;;5085388;28;20199;-77
2020/12/29 03:46:05;;;;;;;47.45;23.45;;;5.40;99.90;;;;;;5068020;28;20219;-78
2020/12/29 03:48:32;;;;;;;46.00;25.67;;;5.40;99.90;;;;;;5070213;28;20225;-78
2020/12/29 03:50:59;;;;;;;45.55;24.70;;;5.50;99.90;;;;;;5073204;28;20213;-78
2020/12/29 03:53:25;;;;;;;42.17;24.33;;;5.50;99.90;;;;;;5068848;28;20568;-77
2020/12/29 03:55:51;;;;;;;51.33;24.95;;;5.50;99.90;;;;;;5078294;28;20765;-77
2020/12/29 03:58:20;;;;;;;43.70;23.65;;;5.50;99.90;;;;;;5080467;28;20209;-77
2020/12/29 04:00:46;;;;;;;40.78;23.13;;;5.40;99.90;;;;;;5066941;28;20258;-78
2020/12/29 04:03:15;;;;;;;47.47;23.13;;;5.50;99.90;;;;;;5082376;28;20650;-77
2020/12/29 04:05:42;;;;;;;48.08;23.38;;;5.40;99.90;;;;;;5067767;28;20226;-77
2020/12/29 04:08:09;;;;;;;45.10;22.70;;;5.50;99.90;;;;;;5081046;28;20210;-77
2020/12/29 04:10:35;;;;;;;38.90;22.33;;;5.40;99.90;;;;;;5066587;28;20210;-77
2020/12/29 04:13:03;;;;;;;38.05;20.77;;;5.40;99.90;;;;;;5070352;28;20203;-76
2020/12/29 04:15:31;;;;;;;36.78;20.75;;;5.40;99.90;;;;;;5068002;28;20213;-76
2020/12/29 04:17:57;;;;;;;31.15;19.17;;;5.40;99.90;;;;;;5068006;28;20685;-76
2020/12/29 04:20:24;;;;;;;34.85;18.30;;;5.40;99.90;;;;;;5069577;28;21418;-76
2020/12/29 04:22:51;;;;;;;27.08;15.75;;;5.40;99.90;;;;;;5069632;28;20206;-77
2020/12/29 04:25:20;;;;;;;27.17;15.50;;;5.40;99.90;;;;;;5067580;28;20191;-77
2020/12/29 04:27:46;;;;;;;23.77;14.13;;;5.40;99.90;;;;;;5081838;28;20536;-76
2020/12/29 04:30:13;;;;;;;31.27;14.85;;;5.40;99.90;;;;;;5073443;28;20212;-76
2020/12/29 04:32:40;;;;;;;25.02;14.35;;;5.40;99.90;;;;;;5066175;28;20504;-76
2020/12/29 04:35:10;;;;;;;23.35;12.50;;;5.40;99.90;;;;;;5086492;28;20625;-76
2020/12/29 04:37:36;;;;;;;20.95;11.82;;;5.40;99.90;;;;;;5070547;28;20231;-77
2020/12/29 04:40:05;;;;;;;23.58;11.88;;;5.40;99.90;;;;;;5080909;28;20197;-77
2020/12/29 04:42:32;;;;;;;18.13;10.40;;;5.40;99.90;;;;;;5071107;27;20206;-76
2020/12/29 04:44:58;;;;;;;15.90;9.82;;;5.40;99.90;;;;;;5068363;27;20684;-76
2020/12/29 04:47:28;;;;;;;17.15;9.75;;;5.50;99.90;;;;;;5075272;28;20259;-76
2020/12/29 04:49:54;;;;;;;17.73;10.45;;;5.40;99.90;;;;;;5075193;28;20607;-76
2020/12/29 04:52:22;;;;;;;16.35;10.10;;;5.50;99.90;;;;;;5073258;28;20205;-76
2020/12/29 04:54:52;;;;;;;20.17;9.40;;;5.50;99.90;;;;;;5066852;28;20305;-76
2020/12/29 04:57:27;;;;;;;19.27;9.23;;;5.50;99.90;;;;;;5069924;28;20202;-76
2020/12/29 04:59:54;;;;;;;20.25;12.05;;;5.50;99.90;;;;;;5072265;28;20289;-77
2020/12/29 05:02:20;;;;;;;18.10;9.50;;;5.50;99.90;;;;;;5068740;28;20209;-77
2020/12/29 05:04:47;;;;;;;16.52;10.27;;;5.50;99.90;;;;;;5068675;28;20574;-77
2020/12/29 05:07:16;;;;;;;18.23;9.70;;;5.50;99.90;;;;;;5067213;28;20222;-76
2020/12/29 05:09:44;;;;;;;19.85;9.68;;;5.50;99.90;;;;;;5070971;28;20689;-77
2020/12/29 05:12:10;;;;;;;18.35;9.75;;;5.50;99.90;;;;;;5082053;28;20238;-76
2020/12/29 05:14:37;;;;;;;25.83;8.90;;;5.50;99.90;;;;;;5066920;28;20206;-77
2020/12/29 05:17:04;;;;;;;15.07;8.52;;;5.50;99.90;;;;;;5068727;28;20634;-77
2020/12/29 05:19:32;;;;;;;14.15;8.50;;;5.50;99.90;;;;;;5068256;28;20265;-76
2020/12/29 05:21:59;;;;;;;19.65;8.43;;;5.50;99.90;;;;;;5071989;27;20674;-77
2020/12/29 05:24:25;;;;;;;16.13;7.88;;;5.50;99.90;;;;;;5070842;28;20199;-77
2020/12/29 05:26:54;;;;;;;21.65;7.68;;;5.40;99.90;;;;;;5069598;28;20662;-77
2020/12/29 05:29:21;;;;;;;34.42;8.48;;;5.40;99.90;;;;;;5065262;28;20214;-77
2020/12/29 05:31:49;;;;;;;35.30;7.72;;;5.40;99.90;;;;;;5067026;28;20550;-77
2020/12/29 05:34:20;;;;;;;16.10;6.82;;;5.50;99.90;;;;;;5086546;28;20269;-77
2020/12/29 05:36:47;;;;;;;21.58;7.43;;;5.40;99.90;;;;;;5076261;28;20222;-78
2020/12/29 05:39:14;;;;;;;29.10;7.25;;;5.40;99.90;;;;;;5065608;28;20658;-77
2020/12/29 05:41:42;;;;;;;14.82;6.93;;;5.40;99.90;;;;;;5066311;28;20220;-78
2020/12/29 05:44:10;;;;;;;16.85;6.97;;;5.40;99.90;;;;;;5076534;28;20655;-77
2020/12/29 05:46:37;;;;;;;19.73;6.97;;;5.40;99.90;;;;;;5068062;28;20211;-78
2020/12/29 05:49:05;;;;;;;18.65;7.38;;;5.50;99.90;;;;;;5075887;28;20209;-77
2020/12/29 05:51:35;;;;;;;23.77;7.47;;;5.40;99.90;;;;;;5076264;28;20217;-77
2020/12/29 05:54:05;;;;;;;18.38;7.30;;;5.40;99.90;;;;;;5077347;28;20194;-77
2020/12/29 05:56:40;;;;;;;27.23;7.25;;;5.40;99.90;;;;;;5069291;28;20205;-77
2020/12/29 05:59:08;;;;;;;12.70;7.20;;;5.40;99.90;;;;;;5069354;28;20201;-78
2020/12/29 06:01:39;;;;;;;13.80;7.93;;;5.50;99.90;;;;;;5073879;28;20206;-78
2020/12/29 06:04:08;;;;;;;18.60;8.52;;;5.50;99.90;;;;;;5066408;28;20206;-78
2020/12/29 06:06:36;;;;;;;20.08;7.45;;;5.50;99.90;;;;;;5078400;28;20218;-78
2020/12/29 06:09:06;;;;;;;16.80;8.30;;;5.50;99.90;;;;;;5072926;28;20617;-77
2020/12/29 06:11:53;;;;;;;14.50;7.28;;;5.50;99.90;;;;;;5065620;28;20199;-77
2020/12/29 06:14:22;;;;;;;15.05;7.90;;;5.50;99.90;;;;;;5069041;28;20199;-77
2020/12/29 06:16:48;;;;;;;18.27;7.50;;;5.50;99.90;;;;;;5081393;28;20194;-77
2020/12/29 06:19:23;;;;;;;12.45;7.22;;;5.50;99.90;;;;;;5067551;28;20205;-78
2020/12/29 06:22:00;;;;;;;13.70;7.07;;;5.50;99.90;;;;;;5066893;28;20197;-78
2020/12/29 06:24:29;;;;;;;13.32;7.00;;;5.50;99.90;;;;;;5068065;28;20209;-78
2020/12/29 06:27:02;;;;;;;17.75;7.03;;;5.50;99.90;;;;;;5068022;28;20228;-78
2020/12/29 06:29:36;;;;;;;14.73;7.10;;;5.50;99.90;;;;;;5067356;28;20198;-77
2020/12/29 06:32:11;;;;;;;13.82;6.43;;;5.50;99.90;;;;;;5065693;28;20199;-77
2020/12/29 06:34:40;;;;;;;13.93;7.00;;;5.50;99.90;;;;;;5093754;28;20208;-77
2020/12/29 06:37:10;;;;;;;24.60;7.43;;;5.50;99.90;;;;;;5067204;27;20230;-77
2020/12/29 06:39:42;;;;;;;13.23;7.85;;;5.50;99.90;;;;;;5066769;28;20234;-77
2020/12/29 06:42:10;;;;;;;13.65;8.02;;;5.60;99.90;;;;;;5070209;28;20198;-78
2020/12/29 06:44:36;;;;;;;11.48;7.80;;;5.50;99.90;;;;;;5070433;28;20210;-77
2020/12/29 06:47:13;;;;;;;14.30;7.63;;;5.50;99.90;;;;;;5070362;28;20712;-78
2020/12/29 06:49:44;;;;;;;14.27;8.23;;;5.60;99.90;;;;;;5083817;28;20228;-78
2020/12/29 06:52:17;;;;;;;15.65;7.97;;;5.60;99.90;;;;;;5072898;28;20222;-78
2020/12/29 06:54:48;;;;;;;20.88;7.97;;;5.60;99.90;;;;;;5069998;27;20206;-77
2020/12/29 06:57:15;;;;;;;15.20;7.30;;;5.60;99.90;;;;;;5088819;28;20201;-77
2020/12/29 06:59:42;;;;;;;17.70;7.78;;;5.60;99.90;;;;;;5076058;28;20669;-76
2020/12/29 07:02:18;;;;;;;16.17;8.07;;;5.60;99.90;;;;;;5067982;28;20203;-77
2020/12/29 07:04:49;;;;;;;16.75;7.72;;;5.70;99.90;;;;;;5081693;28;20194;-78
2020/12/29 07:07:23;;;;;;;16.05;8.15;;;5.70;99.90;;;;;;5075675;28;20581;-77
2020/12/29 07:09:49;;;;;;;11.52;7.45;;;5.70;99.90;;;;;;5079989;28;20234;-78
2020/12/29 07:12:18;;;;;;;12.15;7.82;;;5.70;99.90;;;;;;5075700;27;20194;-77
2020/12/29 07:14:52;;;;;;;15.57;7.95;;;5.70;99.90;;;;;;5072059;28;20195;-77
2020/12/29 07:17:24;;;;;;;11.82;7.70;;;5.70;99.90;;;;;;5069360;28;20190;-78
2020/12/29 07:19:54;;;;;;;11.90;7.75;;;5.70;99.90;;;;;;5070091;28;20677;-78
2020/12/29 07:22:31;;;;;;;12.40;8.02;;;5.70;99.90;;;;;;5088575;28;20218;-77
2020/12/29 07:24:59;;;;;;;12.88;8.20;;;5.70;99.90;;;;;;5068213;28;20704;-77
2020/12/29 07:27:27;;;;;;;15.13;8.05;;;5.70;99.90;;;;;;5071066;28;20677;-77
2020/12/29 07:29:56;;;;;;;13.25;7.57;;;5.70;99.90;;;;;;5069836;28;20277;-77
2020/12/29 07:32:23;;;;;;;12.85;7.97;;;5.70;99.90;;;;;;5071773;27;20199;-78
2020/12/29 07:34:49;;;;;;;12.38;8.32;;;5.70;99.90;;;;;;5068010;27;20626;-77
2020/12/29 07:37:20;;;;;;;11.82;8.00;;;5.70;99.90;;;;;;5082708;28;20218;-80
2020/12/29 07:39:47;;;;;;;11.43;7.00;;;5.70;99.90;;;;;;5087074;28;20219;-76
2020/12/29 07:42:14;;;;;;;9.52;6.90;;;5.70;99.90;;;;;;5068570;28;20198;-75
2020/12/29 07:44:42;;;;;;;11.05;6.35;;;5.60;99.90;;;;;;5067075;28;20315;-76
2020/12/29 07:47:09;;;;;;;9.85;6.38;;;5.60;99.90;;;;;;5067624;28;20790;-75
2020/12/29 07:49:36;;;;;;;11.65;7.13;;;5.60;99.90;;;;;;5073021;28;20205;-75
2020/12/29 07:52:02;;;;;;;12.27;7.90;;;5.60;99.90;;;;;;5071876;28;20194;-75
2020/12/29 07:54:29;;;;;;;11.75;5.80;;;5.60;99.90;;;;;;5066765;28;20198;-75
2020/12/29 07:56:56;;;;;;;11.50;6.00;;;5.60;99.90;;;;;;5066291;28;20590;-75
2020/12/29 07:59:22;;;;;;;9.35;5.90;;;5.50;99.90;;;;;;5070142;28;20619;-76
2020/12/29 08:01:50;;;;;;;10.32;6.25;;;5.50;99.90;;;;;;5070276;28;20209;-74
2020/12/29 08:04:28;;;;;;;10.60;6.20;;;5.50;99.90;;;;;;5066721;27;20690;-76
2020/12/29 08:06:55;;;;;;;10.10;6.35;;;5.50;99.90;;;;;;5072266;28;20222;-77
2020/12/29 08:09:22;;;;;;;14.40;5.97;;;5.60;99.90;;;;;;5075717;28;20568;-79
2020/12/29 08:11:49;;;;;;;10.30;5.68;;;5.50;99.90;;;;;;5081379;27;20190;-78
2020/12/29 08:14:16;;;;;;;10.35;5.93;;;5.50;99.90;;;;;;5067975;28;20247;-77
2020/12/29 08:16:42;;;;;;;25.20;13.13;;;5.50;99.90;;;;;;5078386;28;20246;-77
2020/12/29 08:19:09;;;;;;;10.63;6.65;;;5.50;99.90;;;;;;5085296;28;20246;-78
2020/12/29 08:21:37;;;;;;;12.57;6.53;;;5.50;99.90;;;;;;5069525;28;20281;-79
2020/12/29 08:24:04;;;;;;;9.00;5.65;;;5.50;99.90;;;;;;5083017;28;20191;-78
2020/12/29 08:26:31;;;;;;;10.90;5.85;;;5.50;99.90;;;;;;5072429;28;20218;-78
2020/12/29 08:28:58;;;;;;;11.02;6.13;;;5.50;99.90;;;;;;5070191;28;20187;-78
2020/12/29 08:31:27;;;;;;;11.73;6.05;;;5.50;99.90;;;;;;5070836;28;20202;-76
2020/12/29 08:33:59;;;;;;;11.82;6.60;;;5.50;99.90;;;;;;5080639;28;20190;-79
2020/12/29 08:36:27;;;;;;;11.43;7.25;;;5.50;99.90;;;;;;5078171;28;20359;-78
2020/12/29 08:39:23;;;;;;;12.65;8.35;;;5.50;99.90;;;;;;5077873;27;20265;-77
2020/12/29 08:41:53;;;;;;;14.90;8.15;;;5.40;99.90;;;;;;5068836;28;20206;-77
2020/12/29 08:44:22;;;;;;;16.30;9.45;;;5.40;99.90;;;;;;5069835;28;20206;-78
2020/12/29 08:46:48;;;;;;;18.38;10.00;;;5.40;99.90;;;;;;5082065;28;20222;-78
2020/12/29 08:49:15;;;;;;;19.20;10.15;;;5.40;99.90;;;;;;5087152;28;20206;-77
2020/12/29 08:51:43;;;;;;;16.33;10.32;;;5.40;99.90;;;;;;5070675;28;20238;-77
2020/12/29 08:54:11;;;;;;;15.32;10.18;;;5.40;99.90;;;;;;5071100;28;20218;-76
2020/12/29 08:56:38;;;;;;;17.65;10.65;;;5.40;99.90;;;;;;5069866;28;20203;-76
2020/12/29 08:59:11;;;;;;;18.85;9.82;;;5.40;99.90;;;;;;5076820;27;20692;-77
2020/12/29 09:01:40;;;;;;;16.60;9.90;;;5.40;99.90;;;;;;5070973;28;20641;-76
2020/12/29 09:04:27;;;;;;;19.08;9.82;;;5.40;99.90;;;;;;5067031;28;20286;-77
2020/12/29 09:07:01;;;;;;;18.60;10.73;;;5.40;99.90;;;;;;5072247;28;20207;-76
2020/12/29 09:09:28;;;;;;;17.55;10.73;;;5.40;99.90;;;;;;5082239;28;20578;-75
2020/12/29 09:12:15;;;;;;;20.25;10.45;;;5.40;99.90;;;;;;5067322;27;20202;-74
2020/12/29 09:14:53;;;;;;;18.85;10.40;;;5.40;99.90;;;;;;5067263;28;20210;-75
2020/12/29 09:17:22;;;;;;;16.25;9.93;;;5.40;99.90;;;;;;5065697;28;20207;-75
2020/12/29 09:20:11;;;;;;;22.50;11.63;;;5.40;99.90;;;;;;5075727;28;20190;-77
2020/12/29 09:22:48;;;;;;;18.90;10.65;;;5.40;99.90;;;;;;5068326;28;20205;-76
2020/12/29 09:25:22;;;;;;;20.42;10.57;;;5.40;99.90;;;;;;5065242;27;20654;-75
2020/12/29 09:27:49;;;;;;;17.65;9.68;;;5.40;99.90;;;;;;5074134;28;20644;-75
2020/12/29 09:30:15;;;;;;;15.70;9.88;;;5.40;99.90;;;;;;5066120;28;20199;-76
2020/12/29 09:32:43;;;;;;;19.10;10.15;;;5.50;99.90;;;;;;5066069;28;20187;-76
2020/12/29 09:35:25;;;;;;;16.23;9.38;;;5.50;99.90;;;;;;5069280;28;20197;-76
2020/12/29 09:37:52;;;;;;;16.98;9.82;;;5.50;99.90;;;;;;5071800;28;20226;-77
2020/12/29 09:40:19;;;;;;;18.33;9.38;;;5.50;99.90;;;;;;5071896;28;20205;-76
2020/12/29 09:42:45;;;;;;;16.95;8.77;;;5.50;99.90;;;;;;5083236;27;20215;-75
2020/12/29 09:45:12;;;;;;;17.75;9.27;;;5.50;99.90;;;;;;5083525;28;20555;-77
2020/12/29 09:47:38;;;;;;;17.08;9.88;;;5.60;99.90;;;;;;5066046;28;20222;-76
2020/12/29 09:50:05;;;;;;;16.45;9.30;;;5.60;99.90;;;;;;5066531;28;20217;-77
2020/12/29 09:52:32;;;;;;;15.65;9.20;;;5.60;99.90;;;;;;5067174;28;20209;-75
2020/12/29 09:54:58;;;;;;;20.20;10.25;;;5.60;99.90;;;;;;5065845;27;20205;-78
2020/12/29 09:57:24;;;;;;;16.27;9.25;;;5.70;99.90;;;;;;5066827;28;20209;-75
2020/12/29 09:59:51;;;;;;;17.83;10.02;;;5.70;99.90;;;;;;5068138;28;20198;-74
2020/12/29 10:02:17;;;;;;;19.30;9.80;;;5.70;99.90;;;;;;5066584;28;20669;-76
2020/12/29 10:04:44;;;;;;;19.38;10.50;;;5.70;99.90;;;;;;5067842;27;20198;-75
2020/12/29 10:07:11;;;;;;;17.45;9.73;;;5.70;99.90;;;;;;5068603;28;20202;-76
2020/12/29 10:09:37;;;;;;;18.48;10.00;;;5.80;99.90;;;;;;5067635;28;20197;-77
2020/12/29 10:12:03;;;;;;;18.60;10.82;;;5.80;99.90;;;;;;5075968;28;20232;-75
2020/12/29 10:14:30;;;;;;;21.83;11.18;;;5.80;99.90;;;;;;5068143;28;20241;-76
2020/12/29 10:16:56;;;;;;;19.08;11.00;;;5.80;99.90;;;;;;5082444;28;20194;-76
2020/12/29 10:19:23;;;;;;;19.33;11.32;;;5.90;99.90;;;;;;5070507;28;20225;-76
2020/12/29 10:21:52;;;;;;;20.25;11.35;;;5.90;99.90;;;;;;5071644;28;20697;-76
2020/12/29 10:24:20;;;;;;;20.00;10.73;;;5.90;99.90;;;;;;5071448;28;20228;-75
2020/12/29 10:26:49;;;;;;;17.98;10.73;;;5.90;99.90;;;;;;5076676;28;20225;-76
2020/12/29 10:29:16;;;;;;;21.63;10.70;;;6.00;99.90;;;;;;5071450;28;20211;-76
2020/12/29 10:31:42;;;;;;;19.88;10.90;;;6.00;99.90;;;;;;5073262;28;20221;-76
2020/12/29 10:34:11;;;;;;;18.85;10.15;;;6.10;99.90;;;;;;5069055;27;20221;-76
2020/12/29 10:36:38;;;;;;;15.63;9.80;;;6.10;99.90;;;;;;5073273;28;20693;-77
2020/12/29 10:39:07;;;;;;;15.02;8.77;;;6.20;99.90;;;;;;5070653;27;20206;-76
2020/12/29 10:41:35;;;;;;;13.50;7.93;;;6.20;99.90;;;;;;5082110;28;20198;-78
2020/12/29 10:44:02;;;;;;;14.60;8.80;;;6.30;99.90;;;;;;5089202;28;20249;-76
2020/12/29 10:46:29;;;;;;;16.38;8.57;;;6.30;99.90;;;;;;5077290;28;20199;-76
2020/12/29 10:48:55;;;;;;;14.00;7.70;;;6.40;99.90;;;;;;5069685;28;20202;-74
2020/12/29 10:51:23;;;;;;;11.73;7.18;;;6.40;99.90;;;;;;5076888;28;20264;-75
2020/12/29 10:53:51;;;;;;;13.90;7.50;;;6.50;99.90;;;;;;5080838;28;20260;-77
2020/12/29 10:56:18;;;;;;;13.30;7.68;;;6.50;99.90;;;;;;5074106;28;20216;-74
2020/12/29 10:58:46;;;;;;;13.88;7.38;;;6.60;99.90;;;;;;5071734;28;20202;-75
2020/12/29 11:01:14;;;;;;;10.10;6.07;;;6.60;99.90;;;;;;5070988;28;20560;-75
2020/12/29 11:03:40;;;;;;;10.98;6.60;;;6.70;99.90;;;;;;5076089;28;20197;-74
2020/12/29 11:06:12;;;;;;;11.27;6.43;;;6.70;99.90;;;;;;5080549;28;20575;-77
2020/12/29 11:08:38;;;;;;;10.75;5.38;;;6.70;99.90;;;;;;5069344;28;20689;-76
2020/12/29 11:11:05;;;;;;;9.88;5.85;;;6.70;99.90;;;;;;5075881;28;20198;-77
2020/12/29 11:13:31;;;;;;;9.07;4.68;;;6.70;99.90;;;;;;5069635;28;20203;-77
2020/12/29 11:15:58;;;;;;;7.13;4.65;;;6.80;99.90;;;;;;5078519;28;20206;-77
2020/12/29 11:18:25;;;;;;;8.10;4.93;;;6.80;99.90;;;;;;5070676;28;20647;-77
2020/12/29 11:20:51;;;;;;;12.95;6.70;;;6.80;99.90;;;;;;5071835;28;20210;-77
2020/12/29 11:23:18;;;;;;;13.40;6.85;;;6.80;99.90;;;;;;5069121;28;20217;-75
2020/12/29 11:25:44;;;;;;;13.90;7.78;;;6.80;99.90;;;;;;5071553;28;20213;-76
2020/12/29 11:28:11;;;;;;;11.90;8.93;;;6.80;99.90;;;;;;5087660;28;20218;-77
2020/12/29 11:30:37;;;;;;;15.43;9.75;;;6.90;99.90;;;;;;5085659;28;20202;-78
2020/12/29 11:33:05;;;;;;;13.65;9.15;;;6.90;99.90;;;;;;5079931;28;20194;-76
2020/12/29 11:35:32;;;;;;;12.70;9.50;;;6.90;99.90;;;;;;5067190;28;20266;-78
2020/12/29 11:37:58;;;;;;;15.98;10.68;;;6.90;99.90;;;;;;5070060;28;20554;-76
2020/12/29 11:40:24;;;;;;;17.60;11.13;;;7.00;99.90;;;;;;5075178;28;20207;-77
2020/12/29 11:42:51;;;;;;;19.30;11.35;;;7.00;99.90;;;;;;5075548;28;20254;-76
2020/12/29 11:45:17;;;;;;;20.65;11.73;;;7.00;99.90;;;;;;5069640;27;20596;-75
2020/12/29 11:47:45;;;;;;;20.27;11.85;;;7.00;99.90;;;;;;5070135;28;20580;-76
2020/12/29 11:50:12;;;;;;;18.75;11.63;;;7.00;99.90;;;;;;5067919;28;20206;-76
2020/12/29 11:52:38;;;;;;;16.95;11.63;;;7.00;99.90;;;;;;5074946;28;20553;-77
2020/12/29 11:55:05;;;;;;;18.08;11.88;;;7.10;99.90;;;;;;5068399;28;20240;-77
2020/12/29 11:57:31;;;;;;;17.92;11.88;;;7.10;99.90;;;;;;5081645;27;20253;-78
2020/12/29 11:59:57;;;;;;;20.08;13.40;;;7.10;99.90;;;;;;5068489;28;20203;-75
2020/12/29 12:02:24;;;;;;;22.15;13.05;;;7.20;99.90;;;;;;5084655;28;20562;-75
2020/12/29 12:04:50;;;;;;;24.85;13.10;;;7.20;99.90;;;;;;5077885;28;20262;-74
2020/12/29 12:07:17;;;;;;;20.02;13.35;;;7.20;99.90;;;;;;5068969;28;20671;-75
2020/12/29 12:09:43;;;;;;;21.45;13.63;;;7.20;99.90;;;;;;5071716;28;20199;-76
2020/12/29 12:12:10;;;;;;;25.45;14.90;;;7.30;99.90;;;;;;5069638;28;20211;-75
2020/12/29 12:14:36;;;;;;;24.25;15.48;;;7.30;99.90;;;;;;5082290;28;20582;-75
2020/12/29 12:17:03;;;;;;;23.45;15.13;;;7.30;99.90;;;;;;5070348;28;20198;-76
2020/12/29 12:19:30;;;;;;;24.95;14.88;;;7.30;99.90;;;;;;5069805;28;20200;-76
2020/12/29 12:21:56;;;;;;;24.42;15.18;;;7.30;99.90;;;;;;5070366;27;21025;-75
2020/12/29 12:24:23;;;;;;;27.20;15.57;;;7.30;99.90;;;;;;5081497;28;20677;-76
2020/12/29 12:26:51;;;;;;;28.58;16.75;;;7.40;99.90;;;;;;5068105;28;20226;-76
2020/12/29 12:29:17;;;;;;;25.45;16.83;;;7.30;99.90;;;;;;5078160;28;20202;-76
2020/12/29 12:31:44;;;;;;;35.30;18.13;;;7.40;99.90;;;;;;5069934;28;20214;-78
2020/12/29 12:34:10;;;;;;;30.45;17.45;;;7.40;99.90;;;;;;5068429;28;20205;-76
2020/12/29 12:36:37;;;;;;;29.55;17.83;;;7.30;99.90;;;;;;5075266;28;20259;-78
2020/12/29 12:39:04;;;;;;;29.88;18.02;;;7.40;99.90;;;;;;5084923;28;20247;-77
2020/12/29 12:41:32;;;;;;;36.58;18.45;;;7.40;99.90;;;;;;5077439;28;20556;-77
2020/12/29 12:43:58;;;;;;;35.42;17.73;;;7.40;99.90;;;;;;5069019;28;20203;-80
2020/12/29 12:46:25;;;;;;;27.63;15.60;;;7.40;99.90;;;;;;5069541;28;20622;-76